sensor_id;sensor_type;location;lat;lon;timestamp;temperature;humidity
12632;DHT22;6381;45.748;12.106;2024-01-15T10:50:58;7.90;82.50
12632;DHT22;6381;45.748;12.106;2024-01-15T10:53:27;8.10;82.30
12632;DHT22;6381;45.748;12.106;2024-01-15T10:58:27;8.20;80.60
12632;DHT22;6381;45.748;12.106;2024-01-15T11:00:58;8.60;80.30
12632;DHT22;6381;45.748;12.106;2024-01-15T11:03:28;8.50;80.20
12632;DHT22;6381;45.748;12.106;2024-01-15T11:05:57;8.20;80.00
12632;DHT22;6381;45.748;12.106;2024-01-15T11:08:27;8.30;80.80
12632;DHT22;6381;45.748;12.106;2024-01-15T11:10:56;8.30;80.00
12632;DHT22;6381;45.748;12.106;2024-01-15T11:13:40;8.60;79.00
12632;DHT22;6381;45.748;12.106;2024-01-15T11:16:12;8.80;78.70
12632;DHT22;6381;45.748;12.106;2024-01-15T11:18:41;9.10;77.40
12632;DHT22;6381;45.748;12.106;2024-01-15T11:21:28;8.90;77.30
12632;DHT22;6381;45.748;12.106;2024-01-15T11:23:59;8.70;77.40
12632;DHT22;6381;45.748;12.106;2024-01-15T11:26:33;9.00;77.50
12632;DHT22;6381;45.748;12.106;2024-01-15T11:29:04;8.80;77.30
12632;DHT22;6381;45.748;12.106;2024-01-15T11:32:00;8.80;77.50
12632;DHT22;6381;45.748;12.106;2024-01-15T11:37:29;9.40;76.80
12632;DHT22;6381;45.748;12.106;2024-01-15T11:40:18;9.50;74.90
12632;DHT22;6381;45.748;12.106;2024-01-15T11:42:48;9.70;74.10
12632;DHT22;6381;45.748;12.106;2024-01-15T11:45:19;9.40;73.30
12632;DHT22;6381;45.748;12.106;2024-01-15T11:48:09;9.60;73.10
12632;DHT22;6381;45.748;12.106;2024-01-15T11:50:40;9.70;72.20
12632;DHT22;6381;45.748;12.106;2024-01-15T11:53:17;9.90;72.20
12632;DHT22;6381;45.748;12.106;2024-01-15T11:58:16;10.00;69.80
12632;DHT22;6381;45.748;12.106;2024-01-15T12:00:47;9.90;70.00
12632;DHT22;6381;45.748;12.106;2024-01-15T12:03:20;10.00;69.60
12632;DHT22;6381;45.748;12.106;2024-01-15T12:05:49;10.10;68.70
12632;DHT22;6381;45.748;12.106;2024-01-15T12:08:21;10.10;68.40
12632;DHT22;6381;45.748;12.106;2024-01-15T12:10:50;10.20;68.40
12632;DHT22;6381;45.748;12.106;2024-01-15T12:13:20;10.10;68.60
12632;DHT22;6381;45.748;12.106;2024-01-15T12:15:49;10.40;68.10
12632;DHT22;6381;45.748;12.106;2024-01-15T12:18:19;10.00;68.40
12632;DHT22;6381;45.748;12.106;2024-01-15T12:20:48;10.10;68.60
12632;DHT22;6381;45.748;12.106;2024-01-15T12:23:20;10.50;69.70
12632;DHT22;6381;45.748;12.106;2024-01-15T12:25:49;10.10;70.60
12632;DHT22;6381;45.748;12.106;2024-01-15T12:28:18;9.80;71.30
12632;DHT22;6381;45.748;12.106;2024-01-15T12:30:47;9.70;71.70
12632;DHT22;6381;45.748;12.106;2024-01-15T12:33:19;10.10;72.30
12632;DHT22;6381;45.748;12.106;2024-01-15T12:35:52;10.10;71.10
12632;DHT22;6381;45.748;12.106;2024-01-15T12:38:21;10.30;71.30
12632;DHT22;6381;45.748;12.106;2024-01-15T12:40:51;10.40;69.60
12632;DHT22;6381;45.748;12.106;2024-01-15T12:43:19;10.50;70.80
12632;DHT22;6381;45.748;12.106;2024-01-15T12:45:48;10.90;69.70
12632;DHT22;6381;45.748;12.106;2024-01-15T12:48:17;10.70;68.70
12632;DHT22;6381;45.748;12.106;2024-01-15T12:50:47;10.60;68.80
12632;DHT22;6381;45.748;12.106;2024-01-15T12:53:16;10.20;69.10
12632;DHT22;6381;45.748;12.106;2024-01-15T12:55:45;10.10;69.30
12632;DHT22;6381;45.748;12.106;2024-01-15T12:58:14;10.70;68.80
12632;DHT22;6381;45.748;12.106;2024-01-15T13:00:46;11.50;67.50
12632;DHT22;6381;45.748;12.106;2024-01-15T13:03:15;11.50;64.80
12632;DHT22;6381;45.748;12.106;2024-01-15T13:05:44;11.80;63.90
12632;DHT22;6381;45.748;12.106;2024-01-15T13:08:15;12.50;63.50
12632;DHT22;6381;45.748;12.106;2024-01-15T13:10:44;12.00;62.90
12632;DHT22;6381;45.748;12.106;2024-01-15T13:13:12;12.30;61.60
12632;DHT22;6381;45.748;12.106;2024-01-15T13:15:41;11.90;62.30
12632;DHT22;6381;45.748;12.106;2024-01-15T13:18:09;11.60;61.90
12632;DHT22;6381;45.748;12.106;2024-01-15T13:20:40;11.10;63.20
12632;DHT22;6381;45.748;12.106;2024-01-15T13:23:08;11.00;64.70
12632;DHT22;6381;45.748;12.106;2024-01-15T13:25:40;10.70;64.90
12632;DHT22;6381;45.748;12.106;2024-01-15T13:28:09;10.20;66.80
12632;DHT22;6381;45.748;12.106;2024-01-15T13:30:38;10.90;67.60
12632;DHT22;6381;45.748;12.106;2024-01-15T13:33:06;10.40;67.30
12632;DHT22;6381;45.748;12.106;2024-01-15T13:35:36;10.40;68.40
12632;DHT22;6381;45.748;12.106;2024-01-15T13:38:04;10.40;68.40
12632;DHT22;6381;45.748;12.106;2024-01-15T13:40:33;10.10;68.10
12632;DHT22;6381;45.748;12.106;2024-01-15T13:43:03;10.00;69.90
12632;DHT22;6381;45.748;12.106;2024-01-15T13:45:35;10.70;69.80
12632;DHT22;6381;45.748;12.106;2024-01-15T13:48:05;10.20;69.80
12632;DHT22;6381;45.748;12.106;2024-01-15T13:50:36;10.20;69.90
12632;DHT22;6381;45.748;12.106;2024-01-15T13:53:05;10.70;69.90
12632;DHT22;6381;45.748;12.106;2024-01-15T13:55:36;11.00;69.10
12632;DHT22;6381;45.748;12.106;2024-01-15T13:58:06;11.20;68.40
12632;DHT22;6381;45.748;12.106;2024-01-15T14:00:34;11.30;66.40
12632;DHT22;6381;45.748;12.106;2024-01-15T14:03:04;11.60;65.60
12632;DHT22;6381;45.748;12.106;2024-01-15T14:05:34;11.40;64.70
12632;DHT22;6381;45.748;12.106;2024-01-15T14:10:31;11.00;64.60
12632;DHT22;6381;45.748;12.106;2024-01-15T14:13:00;11.50;64.80
12632;DHT22;6381;45.748;12.106;2024-01-15T14:15:30;11.50;64.10
12632;DHT22;6381;45.748;12.106;2024-01-15T14:17:59;11.40;63.40
12632;DHT22;6381;45.748;12.106;2024-01-15T14:20:28;11.50;63.80
12632;DHT22;6381;45.748;12.106;2024-01-15T14:22:57;11.80;63.30
12632;DHT22;6381;45.748;12.106;2024-01-15T14:25:25;11.80;62.50
12632;DHT22;6381;45.748;12.106;2024-01-15T14:27:54;12.00;62.20
12632;DHT22;6381;45.748;12.106;2024-01-15T14:30:23;10.70;63.30
12632;DHT22;6381;45.748;12.106;2024-01-15T14:32:53;11.10;64.60
12632;DHT22;6381;45.748;12.106;2024-01-15T14:35:21;11.00;64.60
12632;DHT22;6381;45.748;12.106;2024-01-15T14:37:50;11.10;64.90
12632;DHT22;6381;45.748;12.106;2024-01-15T14:40:18;11.30;64.90
12632;DHT22;6381;45.748;12.106;2024-01-15T14:42:47;11.00;65.80
12632;DHT22;6381;45.748;12.106;2024-01-15T14:45:16;10.90;65.40
12632;DHT22;6381;45.748;12.106;2024-01-15T14:47:44;11.20;65.60
12632;DHT22;6381;45.748;12.106;2024-01-15T14:50:15;10.80;66.70
12632;DHT22;6381;45.748;12.106;2024-01-15T14:52:44;10.70;67.60
12632;DHT22;6381;45.748;12.106;2024-01-15T14:55:13;11.10;68.50
12632;DHT22;6381;45.748;12.106;2024-01-15T14:57:42;11.10;68.80
12632;DHT22;6381;45.748;12.106;2024-01-15T16:23:22;7.60;94.60
12632;DHT22;6381;45.748;12.106;2024-01-15T16:26:11;7.40;96.40
12632;DHT22;6381;45.748;12.106;2024-01-15T16:36:13;7.00;97.30
12632;DHT22;6381;45.748;12.106;2024-01-15T16:48:39;6.70;99.90
12632;DHT22;6381;45.748;12.106;2024-01-15T16:51:07;6.80;99.90
12632;DHT22;6381;45.748;12.106;2024-01-15T16:53:36;6.80;99.90
12632;DHT22;6381;45.748;12.106;2024-01-15T16:56:04;6.40;99.90
12632;DHT22;6381;45.748;12.106;2024-01-15T17:01:03;6.30;99.90
12632;DHT22;6381;45.748;12.106;2024-01-15T17:03:37;6.40;99.90
12632;DHT22;6381;45.748;12.106;2024-01-15T17:06:06;6.50;99.90
12632;DHT22;6381;45.748;12.106;2024-01-15T17:08:34;6.70;99.90
12632;DHT22;6381;45.748;12.106;2024-01-15T17:13:32;6.50;99.90
12632;DHT22;6381;45.748;12.106;2024-01-15T17:16:03;6.50;99.90
12632;DHT22;6381;45.748;12.106;2024-01-15T17:18:33;6.60;99.90
12632;DHT22;6381;45.748;12.106;2024-01-15T17:21:04;6.60;99.90
12632;DHT22;6381;45.748;12.106;2024-01-15T17:23:33;6.50;99.90
12632;DHT22;6381;45.748;12.106;2024-01-15T17:26:02;6.10;99.90
12632;DHT22;6381;45.748;12.106;2024-01-15T17:28:31;6.10;99.90
12632;DHT22;6381;45.748;12.106;2024-01-15T17:31:00;5.70;99.90
12632;DHT22;6381;45.748;12.106;2024-01-15T17:33:29;5.60;99.90
12632;DHT22;6381;45.748;12.106;2024-01-15T17:35:57;5.60;99.90
12632;DHT22;6381;45.748;12.106;2024-01-15T17:38:28;5.70;99.90
12632;DHT22;6381;45.748;12.106;2024-01-15T17:40:57;5.40;99.90
12632;DHT22;6381;45.748;12.106;2024-01-15T17:43:27;5.30;99.90
12632;DHT22;6381;45.748;12.106;2024-01-15T17:45:55;5.50;99.90
12632;DHT22;6381;45.748;12.106;2024-01-15T17:48:28;5.40;99.90
12632;DHT22;6381;45.748;12.106;2024-01-15T17:50:58;5.30;99.90
12632;DHT22;6381;45.748;12.106;2024-01-15T17:53:29;5.50;99.90
12632;DHT22;6381;45.748;12.106;2024-01-15T17:55:59;5.40;99.90
12632;DHT22;6381;45.748;12.106;2024-01-15T18:00:57;5.30;99.90
12632;DHT22;6381;45.748;12.106;2024-01-15T19:28:10;4.70;99.90
12632;DHT22;6381;45.748;12.106;2024-01-15T19:30:38;4.60;99.90
12632;DHT22;6381;45.748;12.106;2024-01-15T19:33:10;4.50;99.90
12632;DHT22;6381;45.748;12.106;2024-01-15T19:35:39;4.60;99.90
12632;DHT22;6381;45.748;12.106;2024-01-15T19:38:08;4.60;99.90
12632;DHT22;6381;45.748;12.106;2024-01-15T19:40:38;4.60;99.90
12632;DHT22;6381;45.748;12.106;2024-01-15T19:43:09;4.90;99.90
12632;DHT22;6381;45.748;12.106;2024-01-15T19:45:39;4.70;99.90
12632;DHT22;6381;45.748;12.106;2024-01-15T20:08:42;4.20;99.90
12632;DHT22;6381;45.748;12.106;2024-01-15T20:11:12;4.30;99.90
12632;DHT22;6381;45.748;12.106;2024-01-15T20:13:41;4.30;99.90
12632;DHT22;6381;45.748;12.106;2024-01-15T20:16:16;4.10;99.90
12632;DHT22;6381;45.748;12.106;2024-01-15T20:18:45;4.10;99.90
12632;DHT22;6381;45.748;12.106;2024-01-15T20:21:15;4.20;99.90
12632;DHT22;6381;45.748;12.106;2024-01-15T20:23:45;4.10;99.90
12632;DHT22;6381;45.748;12.106;2024-01-15T20:26:24;4.10;99.90
12632;DHT22;6381;45.748;12.106;2024-01-15T20:28:53;4.10;99.90
12632;DHT22;6381;45.748;12.106;2024-01-15T20:31:23;4.20;99.90
12632;DHT22;6381;45.748;12.106;2024-01-15T20:33:51;4.10;99.90
12632;DHT22;6381;45.748;12.106;2024-01-15T20:38:51;4.00;99.90
12632;DHT22;6381;45.748;12.106;2024-01-15T20:41:20;4.10;99.90
12632;DHT22;6381;45.748;12.106;2024-01-15T20:43:49;4.20;99.90
12632;DHT22;6381;45.748;12.106;2024-01-15T20:46:17;4.50;99.90
12632;DHT22;6381;45.748;12.106;2024-01-15T20:48:46;4.60;99.90
12632;DHT22;6381;45.748;12.106;2024-01-15T20:51:15;4.50;99.90
12632;DHT22;6381;45.748;12.106;2024-01-15T20:53:46;4.30;99.90
12632;DHT22;6381;45.748;12.106;2024-01-15T20:56:16;4.30;99.90
12632;DHT22;6381;45.748;12.106;2024-01-15T20:58:45;4.30;99.90
12632;DHT22;6381;45.748;12.106;2024-01-15T21:01:15;4.40;99.90
12632;DHT22;6381;45.748;12.106;2024-01-15T21:03:45;4.40;99.90
12632;DHT22;6381;45.748;12.106;2024-01-15T21:06:14;4.50;99.90
12632;DHT22;6381;45.748;12.106;2024-01-15T21:08:42;4.50;99.90
12632;DHT22;6381;45.748;12.106;2024-01-15T21:11:14;4.50;99.90
12632;DHT22;6381;45.748;12.106;2024-01-15T21:13:42;4.60;99.90
12632;DHT22;6381;45.748;12.106;2024-01-15T21:16:11;4.50;99.90
12632;DHT22;6381;45.748;12.106;2024-01-15T21:18:40;4.70;99.90
12632;DHT22;6381;45.748;12.106;2024-01-15T21:21:09;4.70;99.90
12632;DHT22;6381;45.748;12.106;2024-01-15T21:23:38;4.70;99.60
12632;DHT22;6381;45.748;12.106;2024-01-15T21:26:08;4.60;99.30
12632;DHT22;6381;45.748;12.106;2024-01-15T21:28:38;4.70;99.00
12632;DHT22;6381;45.748;12.106;2024-01-15T21:31:07;4.60;98.80
12632;DHT22;6381;45.748;12.106;2024-01-15T21:33:37;4.70;98.80
12632;DHT22;6381;45.748;12.106;2024-01-15T21:36:09;4.90;98.50
12632;DHT22;6381;45.748;12.106;2024-01-15T21:38:37;4.80;98.10
12632;DHT22;6381;45.748;12.106;2024-01-15T21:41:06;4.80;97.90
12632;DHT22;6381;45.748;12.106;2024-01-15T21:46:06;4.90;97.60
12632;DHT22;6381;45.748;12.106;2024-01-15T21:48:35;4.90;97.40
12632;DHT22;6381;45.748;12.106;2024-01-15T21:51:08;5.10;96.90
12632;DHT22;6381;45.748;12.106;2024-01-15T21:53:37;4.80;96.60
12632;DHT22;6381;45.748;12.106;2024-01-15T21:56:08;4.70;97.10
12632;DHT22;6381;45.748;12.106;2024-01-15T21:58:39;4.80;97.10
12632;DHT22;6381;45.748;12.106;2024-01-15T22:01:09;4.70;97.60
12632;DHT22;6381;45.748;12.106;2024-01-15T22:03:37;4.60;97.50
12632;DHT22;6381;45.748;12.106;2024-01-15T22:06:06;4.60;97.60
12632;DHT22;6381;45.748;12.106;2024-01-15T22:08:36;4.60;97.50
12632;DHT22;6381;45.748;12.106;2024-01-15T22:11:05;4.70;97.70
12632;DHT22;6381;45.748;12.106;2024-01-15T22:13:33;4.70;97.40
12632;DHT22;6381;45.748;12.106;2024-01-15T22:16:02;4.70;97.10
12632;DHT22;6381;45.748;12.106;2024-01-15T22:18:32;4.90;97.20
12632;DHT22;6381;45.748;12.106;2024-01-15T22:21:01;5.20;97.00
12632;DHT22;6381;45.748;12.106;2024-01-15T22:23:31;5.20;95.90
12632;DHT22;6381;45.748;12.106;2024-01-15T22:26:00;5.30;95.70
12632;DHT22;6381;45.748;12.106;2024-01-15T22:28:30;5.30;95.10
12632;DHT22;6381;45.748;12.106;2024-01-15T22:30:59;5.00;94.40
12632;DHT22;6381;45.748;12.106;2024-01-15T22:33:28;5.30;93.80
12632;DHT22;6381;45.748;12.106;2024-01-15T22:35:58;5.40;93.30
12632;DHT22;6381;45.748;12.106;2024-01-15T22:38:27;5.30;93.40
12632;DHT22;6381;45.748;12.106;2024-01-15T22:40:55;5.40;92.90
12632;DHT22;6381;45.748;12.106;2024-01-15T22:43:24;5.40;92.40
12632;DHT22;6381;45.748;12.106;2024-01-15T22:45:53;5.10;92.10
12632;DHT22;6381;45.748;12.106;2024-01-15T22:48:22;4.90;92.20
12632;DHT22;6381;45.748;12.106;2024-01-15T22:50:52;4.80;92.70
12632;DHT22;6381;45.748;12.106;2024-01-15T22:53:22;4.80;93.00
12632;DHT22;6381;45.748;12.106;2024-01-15T22:55:50;4.70;93.20
12632;DHT22;6381;45.748;12.106;2024-01-15T22:58:20;4.70;93.50
12632;DHT22;6381;45.748;12.106;2024-01-15T23:00:49;4.70;93.40
12632;DHT22;6381;45.748;12.106;2024-01-15T23:03:21;4.80;93.30
12632;DHT22;6381;45.748;12.106;2024-01-15T23:05:50;5.10;93.40
12632;DHT22;6381;45.748;12.106;2024-01-15T23:08:19;5.30;93.00
12632;DHT22;6381;45.748;12.106;2024-01-15T23:10:50;5.10;92.10
12632;DHT22;6381;45.748;12.106;2024-01-15T23:13:19;5.00;91.80
12632;DHT22;6381;45.748;12.106;2024-01-15T23:15:48;5.10;91.90
12632;DHT22;6381;45.748;12.106;2024-01-15T23:18:16;5.20;92.00
12632;DHT22;6381;45.748;12.106;2024-01-15T23:20:45;5.30;91.80
12632;DHT22;6381;45.748;12.106;2024-01-15T23:23:14;5.30;91.90
12632;DHT22;6381;45.748;12.106;2024-01-15T23:25:42;5.30;91.90
12632;DHT22;6381;45.748;12.106;2024-01-15T23:28:12;5.40;92.30
12632;DHT22;6381;45.748;12.106;2024-01-15T23:30:41;5.20;91.90
12632;DHT22;6381;45.748;12.106;2024-01-15T23:33:09;5.20;92.00
12632;DHT22;6381;45.748;12.106;2024-01-15T23:35:40;5.10;92.00
12632;DHT22;6381;45.748;12.106;2024-01-15T23:40:37;4.90;92.00
12632;DHT22;6381;45.748;12.106;2024-01-15T23:43:06;5.10;92.50
12632;DHT22;6381;45.748;12.106;2024-01-15T23:45:36;4.80;92.30
12632;DHT22;6381;45.748;12.106;2024-01-15T23:48:06;4.70;92.70
12632;DHT22;6381;45.748;12.106;2024-01-15T23:50:35;4.50;93.10
12632;DHT22;6381;45.748;12.106;2024-01-15T23:53:04;4.40;93.30
12632;DHT22;6381;45.748;12.106;2024-01-15T23:55:32;4.60;93.90
12632;DHT22;6381;45.748;12.106;2024-01-15T23:58:01;4.60;93.50
